Weather at Geneva Cointrin International Airport

Public forecast

Using degrees Celsius for public forecast. Weather courtesy of forecast.io.

Current aviation weather report (METAR) for Geneva Cointrin International Airport

Retrieved 2020/11/28 01:20 UTC (17 minutes ago):

LSGG 280120Z AUTO 02003KT 6000 OVC007 05/03 Q1018 NOSIG

Aviation forecast (TAF) for Geneva Cointrin International Airport

Retrieved 2020-11-28 00:33 UTC (1 hour ago):

TAF TAF LSGG 272325Z 2800/2906 VRB03KT 4000 BR OVC006 TX06/2814Z TN02/2806Z TN02/2906Z BECMG 2812/2815 04007KT BKN016